sensor_id;sensor_type;location;lat;lon;timestamp;temperature;humidity
65598;SHT31;52267;51.984;20.956;2023-01-10T00:01:37;6.82;91.70
65598;SHT31;52267;51.984;20.956;2023-01-10T00:04:05;6.81;91.71
65598;SHT31;52267;51.984;20.956;2023-01-10T00:06:32;6.81;91.70
65598;SHT31;52267;51.984;20.956;2023-01-10T00:08:59;6.82;91.70
65598;SHT31;52267;51.984;20.956;2023-01-10T00:11:26;6.83;91.70
65598;SHT31;52267;51.984;20.956;2023-01-10T00:14:11;6.82;91.71
65598;SHT31;52267;51.984;20.956;2023-01-10T00:16:39;6.83;91.69
65598;SHT31;52267;51.984;20.956;2023-01-10T00:19:08;6.83;91.70
65598;SHT31;52267;51.984;20.956;2023-01-10T00:21:36;6.83;91.70
65598;SHT31;52267;51.984;20.956;2023-01-10T00:24:05;6.83;91.69
65598;SHT31;52267;51.984;20.956;2023-01-10T00:26:50;6.82;91.68
65598;SHT31;52267;51.984;20.956;2023-01-10T00:29:21;6.80;91.67
65598;SHT31;52267;51.984;20.956;2023-01-10T00:31:54;6.78;91.69
65598;SHT31;52267;51.984;20.956;2023-01-10T00:34:22;6.79;91.69
65598;SHT31;52267;51.984;20.956;2023-01-10T00:36:49;6.79;91.69
65598;SHT31;52267;51.984;20.956;2023-01-10T00:39:16;6.80;91.68
65598;SHT31;52267;51.984;20.956;2023-01-10T00:41:46;6.79;91.65
65598;SHT31;52267;51.984;20.956;2023-01-10T00:44:32;6.80;91.66
65598;SHT31;52267;51.984;20.956;2023-01-10T00:46:59;6.80;91.65
65598;SHT31;52267;51.984;20.956;2023-01-10T00:49:26;6.82;91.63
65598;SHT31;52267;51.984;20.956;2023-01-10T00:51:53;6.83;91.63
65598;SHT31;52267;51.984;20.956;2023-01-10T00:54:24;6.83;91.60
65598;SHT31;52267;51.984;20.956;2023-01-10T00:56:51;6.82;91.60
65598;SHT31;52267;51.984;20.956;2023-01-10T00:59:18;6.82;91.60
65598;SHT31;52267;51.984;20.956;2023-01-10T01:01:45;6.82;91.60
65598;SHT31;52267;51.984;20.956;2023-01-10T01:04:12;6.83;91.60
65598;SHT31;52267;51.984;20.956;2023-01-10T01:06:41;6.83;91.59
65598;SHT31;52267;51.984;20.956;2023-01-10T01:09:13;6.84;91.59
65598;SHT31;52267;51.984;20.956;2023-01-10T01:11:41;6.84;91.55
65598;SHT31;52267;51.984;20.956;2023-01-10T01:14:08;6.85;91.53
65598;SHT31;52267;51.984;20.956;2023-01-10T01:16:35;6.85;91.50
65598;SHT31;52267;51.984;20.956;2023-01-10T01:19:02;6.86;91.50
65598;SHT31;52267;51.984;20.956;2023-01-10T01:21:29;6.85;91.50
65598;SHT31;52267;51.984;20.956;2023-01-10T01:23:56;6.84;91.50
65598;SHT31;52267;51.984;20.956;2023-01-10T01:26:23;6.87;91.49
65598;SHT31;52267;51.984;20.956;2023-01-10T01:28:51;6.89;91.47
65598;SHT31;52267;51.984;20.956;2023-01-10T01:31:18;6.87;91.40
65598;SHT31;52267;51.984;20.956;2023-01-10T01:33:45;6.88;91.42
65598;SHT31;52267;51.984;20.956;2023-01-10T01:36:13;6.88;91.40
65598;SHT31;52267;51.984;20.956;2023-01-10T01:38:40;6.86;91.40
65598;SHT31;52267;51.984;20.956;2023-01-10T01:41:07;6.86;91.40
65598;SHT31;52267;51.984;20.956;2023-01-10T01:46:49;6.88;91.39
65598;SHT31;52267;51.984;20.956;2023-01-10T01:49:26;6.89;91.36
65598;SHT31;52267;51.984;20.956;2023-01-10T01:51:56;6.89;91.32
65598;SHT31;52267;51.984;20.956;2023-01-10T01:54:29;6.89;91.30
65598;SHT31;52267;51.984;20.956;2023-01-10T01:56:58;6.88;91.30
65598;SHT31;52267;51.984;20.956;2023-01-10T01:59:33;6.84;91.30
65598;SHT31;52267;51.984;20.956;2023-01-10T02:02:07;6.84;91.30
65598;SHT31;52267;51.984;20.956;2023-01-10T02:04:52;6.85;91.30
65598;SHT31;52267;51.984;20.956;2023-01-10T02:07:28;6.83;91.29
65598;SHT31;52267;51.984;20.956;2023-01-10T02:10:02;6.83;91.30
65598;SHT31;52267;51.984;20.956;2023-01-10T02:12:36;6.82;91.28
65598;SHT31;52267;51.984;20.956;2023-01-10T02:15:05;6.82;91.28
65598;SHT31;52267;51.984;20.956;2023-01-10T02:17:33;6.81;91.28
65598;SHT31;52267;51.984;20.956;2023-01-10T02:20:01;6.81;91.28
65598;SHT31;52267;51.984;20.956;2023-01-10T02:40:33;6.67;91.20
65598;SHT31;52267;51.984;20.956;2023-01-10T02:43:38;6.66;91.20
65598;SHT31;52267;51.984;20.956;2023-01-10T02:46:30;6.65;91.19
65598;SHT31;52267;51.984;20.956;2023-01-10T02:48:58;6.63;91.16
65598;SHT31;52267;51.984;20.956;2023-01-10T02:51:26;6.64;91.16
65598;SHT31;52267;51.984;20.956;2023-01-10T02:54:02;6.62;91.15
65598;SHT31;52267;51.984;20.956;2023-01-10T02:56:53;6.59;91.19
65598;SHT31;52267;51.984;20.956;2023-01-10T03:08:23;6.59;91.15
65598;SHT31;52267;51.984;20.956;2023-01-10T03:10:57;6.59;91.13
65598;SHT31;52267;51.984;20.956;2023-01-10T03:16:19;6.58;91.15
65598;SHT31;52267;51.984;20.956;2023-01-10T03:18:57;6.57;91.16
65598;SHT31;52267;51.984;20.956;2023-01-10T03:21:28;6.56;91.13
65598;SHT31;52267;51.984;20.956;2023-01-10T03:23:58;6.56;91.16
65598;SHT31;52267;51.984;20.956;2023-01-10T03:26:53;6.55;91.16
65598;SHT31;52267;51.984;20.956;2023-01-10T03:29:47;6.55;91.19
65598;SHT31;52267;51.984;20.956;2023-01-10T03:32:25;6.54;91.19
65598;SHT31;52267;51.984;20.956;2023-01-10T03:34:54;6.54;91.20
65598;SHT31;52267;51.984;20.956;2023-01-10T03:40:43;6.52;91.25
65598;SHT31;52267;51.984;20.956;2023-01-10T03:46:18;6.51;91.23
65598;SHT31;52267;51.984;20.956;2023-01-10T03:48:53;6.52;91.25
65598;SHT31;52267;51.984;20.956;2023-01-10T03:51:23;6.51;91.27
65598;SHT31;52267;51.984;20.956;2023-01-10T03:53:52;6.54;91.25
65598;SHT31;52267;51.984;20.956;2023-01-10T03:56:19;6.55;91.23
65598;SHT31;52267;51.984;20.956;2023-01-10T03:58:46;6.55;91.25
65598;SHT31;52267;51.984;20.956;2023-01-10T04:01:14;6.55;91.21
65598;SHT31;52267;51.984;20.956;2023-01-10T04:03:41;6.56;91.20
65598;SHT31;52267;51.984;20.956;2023-01-10T04:06:08;6.56;91.23
65598;SHT31;52267;51.984;20.956;2023-01-10T04:08:36;6.57;91.22
65598;SHT31;52267;51.984;20.956;2023-01-10T04:11:03;6.56;91.22
65598;SHT31;52267;51.984;20.956;2023-01-10T04:13:30;6.57;91.22
65598;SHT31;52267;51.984;20.956;2023-01-10T04:15:58;6.59;91.28
65598;SHT31;52267;51.984;20.956;2023-01-10T04:18:26;6.59;91.23
65598;SHT31;52267;51.984;20.956;2023-01-10T04:20:53;6.59;91.24
65598;SHT31;52267;51.984;20.956;2023-01-10T04:23:20;6.59;91.27
65598;SHT31;52267;51.984;20.956;2023-01-10T04:25:47;6.58;91.28
65598;SHT31;52267;51.984;20.956;2023-01-10T04:28:14;6.59;91.28
65598;SHT31;52267;51.984;20.956;2023-01-10T04:30:42;6.58;91.30
65598;SHT31;52267;51.984;20.956;2023-01-10T04:33:09;6.61;91.30
65598;SHT31;52267;51.984;20.956;2023-01-10T04:35:37;6.62;91.29
65598;SHT31;52267;51.984;20.956;2023-01-10T04:38:04;6.60;91.28
65598;SHT31;52267;51.984;20.956;2023-01-10T04:40:31;6.59;91.30
65598;SHT31;52267;51.984;20.956;2023-01-10T04:42:58;6.61;91.30
65598;SHT31;52267;51.984;20.956;2023-01-10T04:45:25;6.61;91.23
65598;SHT31;52267;51.984;20.956;2023-01-10T04:47:52;6.60;91.22
65598;SHT31;52267;51.984;20.956;2023-01-10T04:50:21;6.61;91.22
65598;SHT31;52267;51.984;20.956;2023-01-10T04:52:49;6.62;91.23
65598;SHT31;52267;51.984;20.956;2023-01-10T04:55:16;6.61;91.22
65598;SHT31;52267;51.984;20.956;2023-01-10T04:57:43;6.62;91.23
65598;SHT31;52267;51.984;20.956;2023-01-10T05:00:11;6.63;91.22
65598;SHT31;52267;51.984;20.956;2023-01-10T05:02:39;6.64;91.20
65598;SHT31;52267;51.984;20.956;2023-01-10T05:05:10;6.64;91.19
65598;SHT31;52267;51.984;20.956;2023-01-10T05:07:39;6.65;91.18
65598;SHT31;52267;51.984;20.956;2023-01-10T05:10:06;6.64;91.14
65598;SHT31;52267;51.984;20.956;2023-01-10T05:12:35;6.64;91.15
65598;SHT31;52267;51.984;20.956;2023-01-10T05:15:02;6.62;91.12
65598;SHT31;52267;51.984;20.956;2023-01-10T05:17:30;6.62;91.10
65598;SHT31;52267;51.984;20.956;2023-01-10T05:19:57;6.61;91.10
65598;SHT31;52267;51.984;20.956;2023-01-10T05:22:24;6.60;91.10
65598;SHT31;52267;51.984;20.956;2023-01-10T05:24:51;6.61;91.10
65598;SHT31;52267;51.984;20.956;2023-01-10T05:27:18;6.60;91.08
65598;SHT31;52267;51.984;20.956;2023-01-10T05:29:45;6.61;91.06
65598;SHT31;52267;51.984;20.956;2023-01-10T05:32:15;6.61;91.02
65598;SHT31;52267;51.984;20.956;2023-01-10T05:34:42;6.60;91.00
65598;SHT31;52267;51.984;20.956;2023-01-10T05:37:09;6.59;91.00
65598;SHT31;52267;51.984;20.956;2023-01-10T05:39:36;6.60;91.00
65598;SHT31;52267;51.984;20.956;2023-01-10T05:42:05;6.60;90.94
65598;SHT31;52267;51.984;20.956;2023-01-10T05:44:32;6.61;90.95
65598;SHT31;52267;51.984;20.956;2023-01-10T05:46:59;6.61;90.96
65598;SHT31;52267;51.984;20.956;2023-01-10T05:49:26;6.60;90.91
65598;SHT31;52267;51.984;20.956;2023-01-10T05:51:53;6.59;90.90
65598;SHT31;52267;51.984;20.956;2023-01-10T05:54:20;6.57;90.91
65598;SHT31;52267;51.984;20.956;2023-01-10T05:56:48;6.57;90.91
65598;SHT31;52267;51.984;20.956;2023-01-10T05:59:15;6.56;90.90
65598;SHT31;52267;51.984;20.956;2023-01-10T06:01:42;6.54;90.90
65598;SHT31;52267;51.984;20.956;2023-01-10T06:04:09;6.54;90.90
65598;SHT31;52267;51.984;20.956;2023-01-10T06:06:36;6.53;90.90
65598;SHT31;52267;51.984;20.956;2023-01-10T06:09:03;6.51;90.91
65598;SHT31;52267;51.984;20.956;2023-01-10T06:11:30;6.52;90.90
65598;SHT31;52267;51.984;20.956;2023-01-10T06:14:01;6.53;90.91
65598;SHT31;52267;51.984;20.956;2023-01-10T06:16:28;6.52;90.90
65598;SHT31;52267;51.984;20.956;2023-01-10T06:18:56;6.52;90.90
65598;SHT31;52267;51.984;20.956;2023-01-10T06:21:23;6.52;90.88
65598;SHT31;52267;51.984;20.956;2023-01-10T06:23:50;6.51;90.88
65598;SHT31;52267;51.984;20.956;2023-01-10T06:26:17;6.49;90.87
65598;SHT31;52267;51.984;20.956;2023-01-10T06:28:45;6.48;90.87
65598;SHT31;52267;51.984;20.956;2023-01-10T06:31:12;6.50;90.83
65598;SHT31;52267;51.984;20.956;2023-01-10T06:33:40;6.50;90.82
65598;SHT31;52267;51.984;20.956;2023-01-10T06:36:09;6.50;90.81
65598;SHT31;52267;51.984;20.956;2023-01-10T06:38:36;6.49;90.80
65598;SHT31;52267;51.984;20.956;2023-01-10T06:41:03;6.49;90.80
65598;SHT31;52267;51.984;20.956;2023-01-10T06:43:41;6.49;90.80
65598;SHT31;52267;51.984;20.956;2023-01-10T06:46:11;6.49;90.80
65598;SHT31;52267;51.984;20.956;2023-01-10T06:48:42;6.48;90.80
65598;SHT31;52267;51.984;20.956;2023-01-10T06:51:11;6.46;90.78
65598;SHT31;52267;51.984;20.956;2023-01-10T06:53:40;6.44;90.77
65598;SHT31;52267;51.984;20.956;2023-01-10T06:56:08;6.41;90.79
65598;SHT31;52267;51.984;20.956;2023-01-10T06:58:36;6.41;90.78
65598;SHT31;52267;51.984;20.956;2023-01-10T07:01:05;6.39;90.78
65598;SHT31;52267;51.984;20.956;2023-01-10T07:03:44;6.38;90.79
65598;SHT31;52267;51.984;20.956;2023-01-10T07:06:11;6.38;90.78
65598;SHT31;52267;51.984;20.956;2023-01-10T07:08:40;6.36;90.72
65598;SHT31;52267;51.984;20.956;2023-01-10T07:11:11;6.36;90.73
65598;SHT31;52267;51.984;20.956;2023-01-10T07:13:40;6.34;90.72
65598;SHT31;52267;51.984;20.956;2023-01-10T07:16:08;6.35;90.74
65598;SHT31;52267;51.984;20.956;2023-01-10T07:18:38;6.32;90.70
65598;SHT31;52267;51.984;20.956;2023-01-10T07:21:07;6.29;90.70
65598;SHT31;52267;51.984;20.956;2023-01-10T07:23:36;6.29;90.70
65598;SHT31;52267;51.984;20.956;2023-01-10T07:26:04;6.27;90.70
65598;SHT31;52267;51.984;20.956;2023-01-10T07:28:33;6.26;90.70
65598;SHT31;52267;51.984;20.956;2023-01-10T07:31:02;6.25;90.70
65598;SHT31;52267;51.984;20.956;2023-01-10T07:33:31;6.20;90.65
65598;SHT31;52267;51.984;20.956;2023-01-10T07:35:59;6.16;90.65
65598;SHT31;52267;51.984;20.956;2023-01-10T07:38:27;6.15;90.64
65598;SHT31;52267;51.984;20.956;2023-01-10T07:40:55;6.15;90.62
65598;SHT31;52267;51.984;20.956;2023-01-10T07:43:22;6.13;90.60
65598;SHT31;52267;51.984;20.956;2023-01-10T07:45:49;6.12;90.60
65598;SHT31;52267;51.984;20.956;2023-01-10T07:48:17;6.10;90.56
65598;SHT31;52267;51.984;20.956;2023-01-10T07:50:44;6.07;90.58
65598;SHT31;52267;51.984;20.956;2023-01-10T07:53:11;6.05;90.53
65598;SHT31;52267;51.984;20.956;2023-01-10T07:55:39;6.03;90.53
65598;SHT31;52267;51.984;20.956;2023-01-10T07:58:06;6.03;90.51
65598;SHT31;52267;51.984;20.956;2023-01-10T08:00:34;6.05;90.52
65598;SHT31;52267;51.984;20.956;2023-01-10T08:03:01;6.08;90.47
65598;SHT31;52267;51.984;20.956;2023-01-10T08:05:28;6.08;90.44
65598;SHT31;52267;51.984;20.956;2023-01-10T08:07:55;6.11;90.41
65598;SHT31;52267;51.984;20.956;2023-01-10T08:10:25;6.10;90.38
65598;SHT31;52267;51.984;20.956;2023-01-10T08:12:53;6.15;90.40
65598;SHT31;52267;51.984;20.956;2023-01-10T08:15:20;6.20;90.33
65598;SHT31;52267;51.984;20.956;2023-01-10T08:17:47;6.23;90.29
65598;SHT31;52267;51.984;20.956;2023-01-10T08:20:14;6.24;90.26
65598;SHT31;52267;51.984;20.956;2023-01-10T08:22:41;6.26;90.22
65598;SHT31;52267;51.984;20.956;2023-01-10T08:25:09;6.26;90.17
65598;SHT31;52267;51.984;20.956;2023-01-10T08:27:36;6.26;90.13
65598;SHT31;52267;51.984;20.956;2023-01-10T08:30:04;6.26;90.04
65598;SHT31;52267;51.984;20.956;2023-01-10T08:32:32;6.28;90.07
65598;SHT31;52267;51.984;20.956;2023-01-10T08:34:59;6.30;90.04
65598;SHT31;52267;51.984;20.956;2023-01-10T08:37:26;6.29;90.01
65598;SHT31;52267;51.984;20.956;2023-01-10T08:39:54;6.28;89.96
65598;SHT31;52267;51.984;20.956;2023-01-10T08:42:21;6.29;89.98
65598;SHT31;52267;51.984;20.956;2023-01-10T08:44:48;6.30;89.96
65598;SHT31;52267;51.984;20.956;2023-01-10T08:47:15;6.30;89.97
65598;SHT31;52267;51.984;20.956;2023-01-10T08:49:42;6.32;89.95
65598;SHT31;52267;51.984;20.956;2023-01-10T08:52:09;6.33;89.91
65598;SHT31;52267;51.984;20.956;2023-01-10T08:54:36;6.31;89.91
65598;SHT31;52267;51.984;20.956;2023-01-10T08:57:03;6.31;89.92
65598;SHT31;52267;51.984;20.956;2023-01-10T08:59:31;6.33;89.90
65598;SHT31;52267;51.984;20.956;2023-01-10T09:01:58;6.34;89.89
65598;SHT31;52267;51.984;20.956;2023-01-10T09:04:25;6.36;89.88
65598;SHT31;52267;51.984;20.956;2023-01-10T09:06:54;6.38;89.81
65598;SHT31;52267;51.984;20.956;2023-01-10T09:09:21;6.36;89.79
65598;SHT31;52267;51.984;20.956;2023-01-10T09:11:49;6.39;89.80
65598;SHT31;52267;51.984;20.956;2023-01-10T09:14:16;6.41;89.80
65598;SHT31;52267;51.984;20.956;2023-01-10T09:16:43;6.44;89.79
65598;SHT31;52267;51.984;20.956;2023-01-10T09:19:10;6.46;89.72
65598;SHT31;52267;51.984;20.956;2023-01-10T09:21:37;6.46;89.71
65598;SHT31;52267;51.984;20.956;2023-01-10T09:24:04;6.47;89.71
65598;SHT31;52267;51.984;20.956;2023-01-10T09:26:32;6.47;89.71
65598;SHT31;52267;51.984;20.956;2023-01-10T09:29:00;6.46;89.69
65598;SHT31;52267;51.984;20.956;2023-01-10T09:31:27;6.43;89.67
65598;SHT31;52267;51.984;20.956;2023-01-10T09:33:54;6.44;89.70
65598;SHT31;52267;51.984;20.956;2023-01-10T09:36:21;6.45;89.69
65598;SHT31;52267;51.984;20.956;2023-01-10T09:38:48;6.47;89.69
65598;SHT31;52267;51.984;20.956;2023-01-10T09:41:18;6.47;89.70
65598;SHT31;52267;51.984;20.956;2023-01-10T09:44:24;6.47;89.69
65598;SHT31;52267;51.984;20.956;2023-01-10T09:47:12;6.48;89.70
65598;SHT31;52267;51.984;20.956;2023-01-10T09:49:47;6.48;89.64
65598;SHT31;52267;51.984;20.956;2023-01-10T09:52:35;6.50;89.69
65598;SHT31;52267;51.984;20.956;2023-01-10T09:55:51;6.50;89.67
65598;SHT31;52267;51.984;20.956;2023-01-10T09:58:12;6.51;89.70
65598;SHT31;52267;51.984;20.956;2023-01-10T10:00:43;6.51;89.70
65598;SHT31;52267;51.984;20.956;2023-01-10T10:03:30;6.52;89.70
65598;SHT31;52267;51.984;20.956;2023-01-10T10:06:08;6.51;89.65
65598;SHT31;52267;51.984;20.956;2023-01-10T10:08:38;6.51;89.61
65598;SHT31;52267;51.984;20.956;2023-01-10T10:19:25;6.53;89.60
65598;SHT31;52267;51.984;20.956;2023-01-10T10:30:51;6.59;89.56
65598;SHT31;52267;51.984;20.956;2023-01-10T10:35:57;6.63;89.51
65598;SHT31;52267;51.984;20.956;2023-01-10T10:38:31;6.63;89.44
65598;SHT31;52267;51.984;20.956;2023-01-10T10:41:03;6.63;89.31
65598;SHT31;52267;51.984;20.956;2023-01-10T10:43:41;6.61;89.34
65598;SHT31;52267;51.984;20.956;2023-01-10T10:46:13;6.59;89.39
65598;SHT31;52267;51.984;20.956;2023-01-10T10:51:37;6.58;89.32
65598;SHT31;52267;51.984;20.956;2023-01-10T10:54:11;6.59;89.30
65598;SHT31;52267;51.984;20.956;2023-01-10T10:56:39;6.62;89.32
65598;SHT31;52267;51.984;20.956;2023-01-10T10:59:07;6.61;89.27
65598;SHT31;52267;51.984;20.956;2023-01-10T11:01:35;6.61;89.26
65598;SHT31;52267;51.984;20.956;2023-01-10T11:04:05;6.61;89.25
65598;SHT31;52267;51.984;20.956;2023-01-10T11:06:39;6.62;89.25
65598;SHT31;52267;51.984;20.956;2023-01-10T11:09:20;6.61;89.17
65598;SHT31;52267;51.984;20.956;2023-01-10T11:11:53;6.61;89.11
65598;SHT31;52267;51.984;20.956;2023-01-10T11:17:29;6.63;89.10
65598;SHT31;52267;51.984;20.956;2023-01-10T11:20:00;6.60;89.01
65598;SHT31;52267;51.984;20.956;2023-01-10T11:22:46;6.64;89.07
65598;SHT31;52267;51.984;20.956;2023-01-10T11:25:18;6.68;89.05
65598;SHT31;52267;51.984;20.956;2023-01-10T11:30:30;6.70;88.91
65598;SHT31;52267;51.984;20.956;2023-01-10T11:33:00;6.71;88.88
65598;SHT31;52267;51.984;20.956;2023-01-10T11:35:30;6.74;88.85
65598;SHT31;52267;51.984;20.956;2023-01-10T11:38:05;6.78;88.83
65598;SHT31;52267;51.984;20.956;2023-01-10T11:41:21;6.83;88.80
65598;SHT31;52267;51.984;20.956;2023-01-10T11:43:40;6.84;88.70
65598;SHT31;52267;51.984;20.956;2023-01-10T11:51:36;6.86;88.60
65598;SHT31;52267;51.984;20.956;2023-01-10T11:54:18;6.86;88.61
65598;SHT31;52267;51.984;20.956;2023-01-10T11:59:26;6.88;88.66
65598;SHT31;52267;51.984;20.956;2023-01-10T12:02:10;6.85;88.66
65598;SHT31;52267;51.984;20.956;2023-01-10T12:04:57;6.84;88.60
65598;SHT31;52267;51.984;20.956;2023-01-10T12:07:27;6.87;88.54
65598;SHT31;52267;51.984;20.956;2023-01-10T12:15:01;6.90;88.50
65598;SHT31;52267;51.984;20.956;2023-01-10T12:17:52;6.89;88.44
65598;SHT31;52267;51.984;20.956;2023-01-10T12:20:28;6.88;88.43
65598;SHT31;52267;51.984;20.956;2023-01-10T12:23:00;6.89;88.46
65598;SHT31;52267;51.984;20.956;2023-01-10T12:25:50;6.90;88.44
65598;SHT31;52267;51.984;20.956;2023-01-10T12:28:19;6.91;88.38
65598;SHT31;52267;51.984;20.956;2023-01-10T12:30:51;6.90;88.41
65598;SHT31;52267;51.984;20.956;2023-01-10T12:33:21;6.88;88.41
65598;SHT31;52267;51.984;20.956;2023-01-10T12:35:57;6.88;88.40
65598;SHT31;52267;51.984;20.956;2023-01-10T12:42:15;6.86;88.31
65598;SHT31;52267;51.984;20.956;2023-01-10T12:48:11;6.86;88.31
65598;SHT31;52267;51.984;20.956;2023-01-10T12:50:47;6.86;88.30
65598;SHT31;52267;51.984;20.956;2023-01-10T12:53:31;6.86;88.32
65598;SHT31;52267;51.984;20.956;2023-01-10T12:56:04;6.84;88.26
65598;SHT31;52267;51.984;20.956;2023-01-10T12:58:41;6.82;88.22
65598;SHT31;52267;51.984;20.956;2023-01-10T13:01:16;6.84;88.30
65598;SHT31;52267;51.984;20.956;2023-01-10T13:03:52;6.82;88.26
65598;SHT31;52267;51.984;20.956;2023-01-10T13:06:30;6.80;88.20
65598;SHT31;52267;51.984;20.956;2023-01-10T13:09:02;6.79;88.20
65598;SHT31;52267;51.984;20.956;2023-01-10T13:11:37;6.80;88.22
65598;SHT31;52267;51.984;20.956;2023-01-10T13:14:12;6.80;88.20
65598;SHT31;52267;51.984;20.956;2023-01-10T13:16:51;6.80;88.20
65598;SHT31;52267;51.984;20.956;2023-01-10T13:19:25;6.80;88.09
65598;SHT31;52267;51.984;20.956;2023-01-10T13:22:11;6.80;88.10
65598;SHT31;52267;51.984;20.956;2023-01-10T13:24:55;6.80;88.10
65598;SHT31;52267;51.984;20.956;2023-01-10T13:27:31;6.80;88.11
65598;SHT31;52267;51.984;20.956;2023-01-10T13:30:00;6.79;88.10
65598;SHT31;52267;51.984;20.956;2023-01-10T13:32:29;6.77;88.12
65598;SHT31;52267;51.984;20.956;2023-01-10T13:35:17;6.75;88.14
65598;SHT31;52267;51.984;20.956;2023-01-10T13:37:52;6.76;88.09
65598;SHT31;52267;51.984;20.956;2023-01-10T13:40:22;6.74;88.03
65598;SHT31;52267;51.984;20.956;2023-01-10T13:51:19;6.69;88.01
65598;SHT31;52267;51.984;20.956;2023-01-10T13:53:51;6.67;88.00
65598;SHT31;52267;51.984;20.956;2023-01-10T13:56:29;6.65;88.00
65598;SHT31;52267;51.984;20.956;2023-01-10T13:59:02;6.64;88.03
65598;SHT31;52267;51.984;20.956;2023-01-10T14:02:20;6.61;88.00
65598;SHT31;52267;51.984;20.956;2023-01-10T14:10:23;6.57;88.06
65598;SHT31;52267;51.984;20.956;2023-01-10T14:13:03;6.57;88.09
65598;SHT31;52267;51.984;20.956;2023-01-10T14:15:39;6.57;88.07
65598;SHT31;52267;51.984;20.956;2023-01-10T14:18:20;6.54;88.10
65598;SHT31;52267;51.984;20.956;2023-01-10T14:20:57;6.51;88.11
65598;SHT31;52267;51.984;20.956;2023-01-10T14:23:38;6.45;88.20
65598;SHT31;52267;51.984;20.956;2023-01-10T14:26:16;6.43;88.23
65598;SHT31;52267;51.984;20.956;2023-01-10T14:28:52;6.42;88.21
65598;SHT31;52267;51.984;20.956;2023-01-10T14:31:21;6.38;88.25
65598;SHT31;52267;51.984;20.956;2023-01-10T14:33:50;6.37;88.26
65598;SHT31;52267;51.984;20.956;2023-01-10T14:36:20;6.33;88.30
65598;SHT31;52267;51.984;20.956;2023-01-10T14:38:55;6.32;88.30
65598;SHT31;52267;51.984;20.956;2023-01-10T14:41:35;6.29;88.29
65598;SHT31;52267;51.984;20.956;2023-01-10T14:46:46;6.26;88.31
65598;SHT31;52267;51.984;20.956;2023-01-10T14:49:27;6.26;88.30
65598;SHT31;52267;51.984;20.956;2023-01-10T14:52:12;6.25;88.30
65598;SHT31;52267;51.984;20.956;2023-01-10T14:54:53;6.25;88.29
65598;SHT31;52267;51.984;20.956;2023-01-10T14:57:33;6.24;88.29
65598;SHT31;52267;51.984;20.956;2023-01-10T15:00:24;6.24;88.28
65598;SHT31;52267;51.984;20.956;2023-01-10T15:02:57;6.20;88.30
65598;SHT31;52267;51.984;20.956;2023-01-10T15:05:35;6.19;88.30
65598;SHT31;52267;51.984;20.956;2023-01-10T15:08:15;6.19;88.29
65598;SHT31;52267;51.984;20.956;2023-01-10T15:10:56;6.18;88.27
65598;SHT31;52267;51.984;20.956;2023-01-10T15:13:30;6.17;88.28
65598;SHT31;52267;51.984;20.956;2023-01-10T15:16:02;6.16;88.30
65598;SHT31;52267;51.984;20.956;2023-01-10T15:21:10;6.16;88.30
65598;SHT31;52267;51.984;20.956;2023-01-10T15:23:41;6.16;88.30
65598;SHT31;52267;51.984;20.956;2023-01-10T15:26:11;6.14;88.28
65598;SHT31;52267;51.984;20.956;2023-01-10T15:29:11;6.10;88.27
65598;SHT31;52267;51.984;20.956;2023-01-10T15:31:47;6.05;88.30
65598;SHT31;52267;51.984;20.956;2023-01-10T15:34:19;6.02;88.31
65598;SHT31;52267;51.984;20.956;2023-01-10T15:36:56;6.00;88.29
65598;SHT31;52267;51.984;20.956;2023-01-10T15:39:27;5.96;88.32
65598;SHT31;52267;51.984;20.956;2023-01-10T15:42:00;5.93;88.30
65598;SHT31;52267;51.984;20.956;2023-01-10T15:44:39;5.90;88.32
65598;SHT31;52267;51.984;20.956;2023-01-10T15:47:29;5.88;88.30
65598;SHT31;52267;51.984;20.956;2023-01-10T15:50:26;5.82;88.29
65598;SHT31;52267;51.984;20.956;2023-01-10T15:53:07;5.77;88.30
65598;SHT31;52267;51.984;20.956;2023-01-10T15:58:17;5.72;88.30
65598;SHT31;52267;51.984;20.956;2023-01-10T16:00:56;5.68;88.30
65598;SHT31;52267;51.984;20.956;2023-01-10T16:03:26;5.67;88.30
65598;SHT31;52267;51.984;20.956;2023-01-10T16:05:59;5.65;88.30
65598;SHT31;52267;51.984;20.956;2023-01-10T16:08:29;5.64;88.30
65598;SHT31;52267;51.984;20.956;2023-01-10T16:11:00;5.61;88.30
65598;SHT31;52267;51.984;20.956;2023-01-10T16:13:33;5.60;88.30
65598;SHT31;52267;51.984;20.956;2023-01-10T16:16:02;5.59;88.30
65598;SHT31;52267;51.984;20.956;2023-01-10T16:18:41;5.55;88.30
65598;SHT31;52267;51.984;20.956;2023-01-10T16:21:09;5.53;88.29
65598;SHT31;52267;51.984;20.956;2023-01-10T16:23:37;5.52;88.30
65598;SHT31;52267;51.984;20.956;2023-01-10T16:26:09;5.50;88.30
65598;SHT31;52267;51.984;20.956;2023-01-10T16:28:37;5.46;88.25
65598;SHT31;52267;51.984;20.956;2023-01-10T16:31:04;5.44;88.30
65598;SHT31;52267;51.984;20.956;2023-01-10T16:33:34;5.42;88.30
65598;SHT31;52267;51.984;20.956;2023-01-10T16:36:03;5.41;88.30
65598;SHT31;52267;51.984;20.956;2023-01-10T16:38:39;5.41;88.30
65598;SHT31;52267;51.984;20.956;2023-01-10T16:41:10;5.39;88.29
65598;SHT31;52267;51.984;20.956;2023-01-10T16:43:57;5.38;88.30
65598;SHT31;52267;51.984;20.956;2023-01-10T16:46:26;5.36;88.30
65598;SHT31;52267;51.984;20.956;2023-01-10T16:48:53;5.35;88.30
65598;SHT31;52267;51.984;20.956;2023-01-10T16:51:27;5.34;88.30
65598;SHT31;52267;51.984;20.956;2023-01-10T16:53:58;5.32;88.32
65598;SHT31;52267;51.984;20.956;2023-01-10T16:56:26;5.30;88.30
65598;SHT31;52267;51.984;20.956;2023-01-10T16:58:54;5.28;88.29
65598;SHT31;52267;51.984;20.956;2023-01-10T17:01:26;5.25;88.33
65598;SHT31;52267;51.984;20.956;2023-01-10T17:03:56;5.23;88.34
65598;SHT31;52267;51.984;20.956;2023-01-10T17:06:25;5.21;88.37
65598;SHT31;52267;51.984;20.956;2023-01-10T17:08:52;5.20;88.39
65598;SHT31;52267;51.984;20.956;2023-01-10T17:11:24;5.19;88.36
65598;SHT31;52267;51.984;20.956;2023-01-10T17:13:55;5.18;88.33
65598;SHT31;52267;51.984;20.956;2023-01-10T17:16:24;5.17;88.36
65598;SHT31;52267;51.984;20.956;2023-01-10T17:18:51;5.13;88.36
65598;SHT31;52267;51.984;20.956;2023-01-10T17:21:20;5.10;88.40
65598;SHT31;52267;51.984;20.956;2023-01-10T17:23:48;5.07;88.40
65598;SHT31;52267;51.984;20.956;2023-01-10T17:26:16;5.07;88.41
65598;SHT31;52267;51.984;20.956;2023-01-10T17:28:45;5.07;88.40
65598;SHT31;52267;51.984;20.956;2023-01-10T17:31:15;5.06;88.41
65598;SHT31;52267;51.984;20.956;2023-01-10T17:33:45;5.06;88.40
65598;SHT31;52267;51.984;20.956;2023-01-10T17:36:14;5.05;88.40
65598;SHT31;52267;51.984;20.956;2023-01-10T17:38:42;5.03;88.41
65598;SHT31;52267;51.984;20.956;2023-01-10T17:41:09;5.02;88.40
65598;SHT31;52267;51.984;20.956;2023-01-10T17:43:36;5.02;88.40
65598;SHT31;52267;51.984;20.956;2023-01-10T17:46:04;5.01;88.39
65598;SHT31;52267;51.984;20.956;2023-01-10T17:48:32;5.01;88.34